PAOO

Details ICAO PAOO (OOK)
Name TOKSOOK BAY
Region USA (Alaska)
Timezone America/Nome (UTC-9.0)
Plans Departing 3
Arriving 4
Stats Elevation 59 ft / 18 m (AMSL)
Location 60.541336° -165.087185°
Runways 1
Magnetic Variation 10.011° E
Sunrise 2017-12-18 20:07:27 UTC / 2017-12-18 11:07:27 Local
Sunset 2017-12-19 01:49:37 UTC / 2017-12-18 16:49:37 Local
Advertisement - Login to hide

Runways

ID Width Length Bearing (true) Bearing (mag) Surface Threshold Offset Overrun Length
16 59 ft / 18 m 3,212 ft / 979 m 176.91° 166.90° Gravel 0 ft / 0 m 0 ft / 0 m
34 59 ft / 18 m 3,212 ft / 979 m 356.91° 346.90° Gravel 0 ft / 0 m 0 ft / 0 m

Map

Weather


0- 5 10 15 20 25 30 35+ Temperature / ° C

Clouds and Precipitation
Forecast for 2017-12-18 12:00 UTC. Updated 2 hours ago

Ground ~20,000 ft ~40,000 ft Winds

METAR

PAOO 181303Z AUTO 12027KT 1 3/4SM -SN BR OVC007 M01/M02 A2930 RMK AO2 PK WND 12032/1301 CIG 005V011 P0000 FZRANO

TAF

Not found

Frequencies

Unicom 122.90 MHz CTAF
Approach 125.20 MHz ANCHORAGE CNTR
Warning: Do not use this data for real-world aviation or navigation. No guarantee of current accuracy is given.